createdAt,value
2019-05-22T00:01:50.067Z,13.70
2019-05-22T00:05:58.263Z,13.74
2019-05-22T00:10:07.414Z,13.69
2019-05-22T00:14:15.093Z,13.77
2019-05-22T00:18:22.065Z,13.63
2019-05-22T00:22:30.332Z,13.73
2019-05-22T00:26:37.269Z,13.65
2019-05-22T00:30:47.577Z,13.65
2019-05-22T00:34:56.779Z,13.70
2019-05-22T00:39:05.383Z,13.72
2019-05-22T00:43:14.386Z,13.69
2019-05-22T00:47:23.775Z,13.73
2019-05-22T00:51:45.718Z,13.64
2019-05-22T00:56:01.988Z,13.67
2019-05-22T01:00:27.846Z,13.59
2019-05-22T01:04:38.009Z,13.69
2019-05-22T01:08:56.725Z,13.69
2019-05-22T01:13:04.620Z,13.64
2019-05-22T01:17:14.735Z,13.64
2019-05-22T01:21:24.726Z,13.71
2019-05-22T01:25:34.142Z,13.70
2019-05-22T01:29:41.757Z,13.51
2019-05-22T01:34:00.257Z,13.69
2019-05-22T01:38:11.064Z,13.55
2019-05-22T01:42:22.765Z,13.44
2019-05-22T01:46:34.361Z,13.54
2019-05-22T01:50:51.929Z,13.41
2019-05-22T01:54:59.890Z,13.37
2019-05-22T01:59:08.376Z,13.44
2019-05-22T02:03:17.609Z,13.44
2019-05-22T02:07:28.504Z,13.45
2019-05-22T02:11:38.136Z,13.43
2019-05-22T02:15:52.409Z,13.44
2019-05-22T02:20:00.002Z,13.34
2019-05-22T02:24:09.410Z,13.45
2019-05-22T02:28:16.553Z,13.42
2019-05-22T02:32:24.028Z,13.51
2019-05-22T02:36:32.878Z,13.54
2019-05-22T02:40:43.015Z,13.61
2019-05-22T02:44:50.316Z,13.54
2019-05-22T02:48:59.227Z,13.64
2019-05-22T02:53:11.377Z,13.55
2019-05-22T02:57:19.253Z,13.55
2019-05-22T03:01:28.139Z,13.56
2019-05-22T03:05:35.830Z,13.54
2019-05-22T03:09:46.581Z,13.56
2019-05-22T03:14:05.405Z,13.61
2019-05-22T03:18:14.127Z,13.55
2019-05-22T03:22:30.994Z,13.61
2019-05-22T03:26:48.710Z,13.62
2019-05-22T03:30:57.058Z,13.62
2019-05-22T03:35:05.041Z,13.50
2019-05-22T03:39:14.011Z,13.53
2019-05-22T03:43:24.586Z,13.50
2019-05-22T03:47:31.864Z,13.55
2019-05-22T03:51:39.149Z,13.51
2019-05-22T03:55:46.845Z,13.37
2019-05-22T03:59:54.751Z,13.31
2019-05-22T04:04:03.265Z,13.34
2019-05-22T04:08:11.098Z,13.38
2019-05-22T04:12:18.510Z,13.35
2019-05-22T04:16:26.835Z,13.27
2019-05-22T04:20:33.840Z,13.39
2019-05-22T04:24:42.175Z,13.36
2019-05-22T04:28:53.022Z,13.26
2019-05-22T04:33:00.384Z,13.39
2019-05-22T04:37:09.238Z,13.27
2019-05-22T04:41:16.637Z,13.30
2019-05-22T04:45:25.672Z,13.27
2019-05-22T04:49:34.214Z,13.36
2019-05-22T04:53:41.365Z,13.26
2019-05-22T04:57:48.484Z,13.36
2019-05-22T05:01:55.533Z,13.35
2019-05-22T05:06:06.363Z,13.18
2019-05-22T05:10:12.226Z,13.25
2019-05-22T05:14:19.037Z,13.19
2019-05-22T05:18:26.287Z,13.27
2019-05-22T05:22:45.408Z,13.35
2019-05-22T05:26:53.152Z,13.26
2019-05-22T05:30:59.956Z,13.24
2019-05-22T05:35:09.866Z,13.45
2019-05-22T05:40:21.128Z,13.39
2019-05-22T05:44:28.166Z,13.36
2019-05-22T05:48:35.895Z,13.44
2019-05-22T05:52:44.050Z,13.50
2019-05-22T05:56:51.988Z,13.50
2019-05-22T06:01:09.886Z,13.57
2019-05-22T06:05:17.751Z,13.66
2019-05-22T06:09:25.947Z,13.79
2019-05-22T06:13:35.494Z,13.71
2019-05-22T06:18:37.444Z,13.91
2019-05-22T06:23:05.525Z,13.87
2019-05-22T06:27:30.562Z,13.86
2019-05-22T06:31:51.874Z,13.87
2019-05-22T06:36:00.997Z,13.81
2019-05-22T06:40:09.867Z,13.85
2019-05-22T06:44:44.494Z,13.85
2019-05-22T06:49:13.906Z,13.96
2019-05-22T06:58:50.869Z,14.19
2019-05-22T07:02:57.779Z,14.43
2019-05-22T07:07:11.825Z,14.29
2019-05-22T07:11:19.130Z,14.49
2019-05-22T07:15:52.447Z,14.63
2019-05-22T07:19:59.852Z,14.80
2019-05-22T07:24:07.978Z,14.80
2019-05-22T07:28:20.490Z,14.78
2019-05-22T07:32:31.140Z,15.07
2019-05-22T07:36:39.738Z,14.69
2019-05-22T07:40:50.381Z,14.91
2019-05-22T07:44:57.152Z,14.90
2019-05-22T07:49:05.970Z,14.85
2019-05-22T07:53:17.677Z,14.76
2019-05-22T07:57:27.548Z,14.69
2019-05-22T08:01:35.140Z,14.73
2019-05-22T08:05:45.326Z,14.72
2019-05-22T08:09:52.819Z,14.81
2019-05-22T08:14:00.511Z,14.48
2019-05-22T08:18:08.144Z,14.42
2019-05-22T08:22:17.116Z,14.37
2019-05-22T08:26:24.832Z,14.42
2019-05-22T08:30:31.877Z,14.43
2019-05-22T08:34:40.925Z,14.22
2019-05-22T08:38:47.792Z,14.43
2019-05-22T08:42:54.928Z,14.54
2019-05-22T08:47:20.413Z,14.29
2019-05-22T08:51:29.183Z,14.57
2019-05-22T08:55:37.341Z,14.71
2019-05-22T08:59:45.534Z,14.61
2019-05-22T09:03:52.587Z,14.44
2019-05-22T09:07:59.509Z,14.73
2019-05-22T09:12:08.335Z,14.92
2019-05-22T09:16:16.554Z,15.10
2019-05-22T09:20:24.054Z,14.87
2019-05-22T09:24:32.394Z,15.08
2019-05-22T09:28:39.400Z,15.24
2019-05-22T09:32:47.651Z,15.05
2019-05-22T09:36:54.620Z,15.01
2019-05-22T09:41:02.244Z,14.91
2019-05-22T09:45:11.598Z,14.91
2019-05-22T09:49:18.506Z,14.81
2019-05-22T09:53:26.199Z,14.60
2019-05-22T09:57:33.018Z,14.48
2019-05-22T10:01:39.951Z,14.56
2019-05-22T10:05:47.341Z,14.54
2019-05-22T10:09:54.283Z,15.01
2019-05-22T10:14:01.888Z,16.14
2019-05-22T10:18:09.113Z,17.07
2019-05-22T10:22:17.276Z,17.43
2019-05-22T10:26:24.217Z,17.67
2019-05-22T10:30:31.463Z,17.82
2019-05-22T10:34:38.646Z,17.94
2019-05-22T10:38:46.548Z,17.97
2019-05-22T10:42:53.819Z,17.86
2019-05-22T10:47:00.847Z,17.61
2019-05-22T10:51:07.732Z,17.57
2019-05-22T10:55:16.923Z,17.92
2019-05-22T10:59:25.280Z,17.89
2019-05-22T11:03:33.399Z,17.67
2019-05-22T11:07:40.987Z,17.43
2019-05-22T11:11:48.035Z,17.79
2019-05-22T11:15:56.280Z,17.58
2019-05-22T11:20:03.553Z,17.75
2019-05-22T11:24:10.811Z,18.12
2019-05-22T11:28:17.618Z,18.02
2019-05-22T11:32:24.520Z,17.75
2019-05-22T11:36:34.289Z,18.03
2019-05-22T11:40:42.305Z,18.07
2019-05-22T11:44:49.089Z,18.34
2019-05-22T11:48:56.000Z,18.77
2019-05-22T11:53:02.989Z,19.14
2019-05-22T11:57:10.835Z,18.83
2019-05-22T12:01:18.232Z,19.21
2019-05-22T12:05:25.564Z,19.76
2019-05-22T12:09:33.156Z,19.39
2019-05-22T12:13:40.106Z,19.81
2019-05-22T12:17:47.387Z,19.25
2019-05-22T12:21:54.247Z,19.19
2019-05-22T12:26:01.479Z,18.80
2019-05-22T12:30:10.086Z,20.63
2019-05-22T12:34:17.009Z,20.40
2019-05-22T12:38:27.112Z,20.31
2019-05-22T12:42:33.929Z,20.93
2019-05-22T12:46:40.808Z,21.73
2019-05-22T12:50:48.069Z,21.97
2019-05-22T12:54:55.144Z,21.83
2019-05-22T12:59:02.130Z,21.72
2019-05-22T13:03:09.324Z,21.12
2019-05-22T13:07:16.558Z,21.70
2019-05-22T13:11:25.248Z,20.78
2019-05-22T13:15:35.284Z,21.12
2019-05-22T13:19:43.817Z,21.04
2019-05-22T13:23:53.492Z,21.47
2019-05-22T13:28:03.339Z,21.47
2019-05-22T13:32:12.210Z,22.02
2019-05-22T13:36:22.480Z,22.37
2019-05-22T13:40:30.403Z,21.10
2019-05-22T13:44:38.118Z,20.64
2019-05-22T13:48:45.055Z,20.56
2019-05-22T13:52:53.899Z,19.71
2019-05-22T13:57:00.889Z,20.77
2019-05-22T14:01:08.912Z,19.57
2019-05-22T14:05:17.430Z,19.52
2019-05-22T14:09:25.043Z,20.63
2019-05-22T14:13:32.013Z,20.43
2019-05-22T14:17:39.148Z,20.99
2019-05-22T14:21:51.835Z,21.38
2019-05-22T14:25:58.692Z,20.52
2019-05-22T14:30:07.733Z,21.04
2019-05-22T14:34:14.996Z,20.16
2019-05-22T14:38:22.320Z,19.40
2019-05-22T14:42:29.322Z,19.68
2019-05-22T14:46:36.414Z,20.53
2019-05-22T14:50:43.235Z,20.38
2019-05-22T14:54:50.786Z,20.19
2019-05-22T14:58:58.050Z,19.99
2019-05-22T15:03:06.730Z,19.68
2019-05-22T15:07:13.961Z,19.68
2019-05-22T15:11:21.205Z,19.08
2019-05-22T15:15:28.608Z,19.42
2019-05-22T15:19:35.424Z,19.83
2019-05-22T15:23:43.522Z,19.63
2019-05-22T15:27:51.044Z,19.55
2019-05-22T15:31:57.839Z,19.21
2019-05-22T15:36:08.106Z,19.52
2019-05-22T15:40:16.851Z,19.23
2019-05-22T15:44:25.034Z,19.13
2019-05-22T15:48:34.526Z,19.19
2019-05-22T15:52:43.201Z,19.12
2019-05-22T15:56:51.420Z,18.92
2019-05-22T16:01:00.564Z,18.99
2019-05-22T16:05:09.417Z,18.74
2019-05-22T16:09:18.036Z,18.54
2019-05-22T16:13:27.017Z,18.52
2019-05-22T16:17:35.791Z,18.58
2019-05-22T16:21:49.366Z,18.61
2019-05-22T16:25:56.567Z,18.48
2019-05-22T16:30:06.412Z,18.19
2019-05-22T16:34:16.471Z,18.24
2019-05-22T16:38:25.662Z,18.16
2019-05-22T16:42:34.983Z,18.22
2019-05-22T16:46:43.742Z,18.12
2019-05-22T16:50:52.780Z,18.21
2019-05-22T16:55:01.713Z,18.25
2019-05-22T16:59:12.672Z,18.13
2019-05-22T17:03:21.864Z,18.06
2019-05-22T17:07:32.783Z,18.15
2019-05-22T17:11:41.589Z,18.27
2019-05-22T17:15:49.301Z,17.98
2019-05-22T17:19:56.541Z,17.92
2019-05-22T17:24:08.550Z,17.90
2019-05-22T17:28:17.129Z,17.93
2019-05-22T17:32:26.569Z,17.71
2019-05-22T17:36:34.299Z,17.77
2019-05-22T17:40:42.383Z,17.71
2019-05-22T17:44:51.651Z,17.67
2019-05-22T17:49:00.515Z,17.62
2019-05-22T17:53:09.194Z,17.50
2019-05-22T17:57:17.040Z,17.55
2019-05-22T18:01:24.717Z,17.47
2019-05-22T18:05:33.564Z,17.41
2019-05-22T18:09:40.629Z,17.38
2019-05-22T18:14:04.113Z,17.32
2019-05-22T18:18:11.433Z,17.24
2019-05-22T18:22:18.504Z,17.13
2019-05-22T18:26:25.857Z,17.09
2019-05-22T18:30:35.509Z,17.05
2019-05-22T18:34:42.383Z,16.96
2019-05-22T18:38:49.386Z,16.89
2019-05-22T18:42:57.809Z,16.81
2019-05-22T18:47:06.027Z,16.70
2019-05-22T18:51:13.904Z,16.61
2019-05-22T18:55:21.518Z,16.58
2019-05-22T18:59:28.571Z,16.47
2019-05-22T19:03:36.220Z,16.41
2019-05-22T19:07:43.105Z,16.30
2019-05-22T19:11:52.454Z,16.25
2019-05-22T19:16:02.767Z,16.20
2019-05-22T19:20:10.351Z,16.10
2019-05-22T19:24:17.254Z,16.08
2019-05-22T19:28:40.462Z,15.94
2019-05-22T19:32:33.676Z,15.84
2019-05-22T19:36:40.462Z,15.78
2019-05-22T19:40:47.503Z,15.68
2019-05-22T19:45:01.024Z,15.60
2019-05-22T19:49:08.028Z,15.58
2019-05-22T19:53:19.169Z,15.50
2019-05-22T19:57:23.685Z,15.47
2019-05-22T20:01:59.173Z,15.34
2019-05-22T20:06:06.436Z,15.29
2019-05-22T20:10:14.041Z,15.25
2019-05-22T20:14:20.964Z,15.14
2019-05-22T20:18:28.232Z,15.11
2019-05-22T20:22:36.872Z,15.03
2019-05-22T20:26:43.812Z,15.01
2019-05-22T20:30:51.164Z,14.95
2019-05-22T20:34:57.993Z,14.99
2019-05-22T20:39:09.384Z,14.99
2019-05-22T20:43:16.934Z,14.76
2019-05-22T20:47:26.953Z,14.68
2019-05-22T20:51:35.088Z,14.65
2019-05-22T20:55:44.810Z,14.55
2019-05-22T20:59:52.249Z,14.49
2019-05-22T21:04:04.036Z,14.43
2019-05-22T21:08:16.136Z,14.37
2019-05-22T21:12:25.702Z,14.29
2019-05-22T21:16:33.004Z,14.32
2019-05-22T21:20:53.690Z,14.28
2019-05-22T21:24:49.850Z,14.21
2019-05-22T21:28:57.710Z,14.14
2019-05-22T21:33:05.356Z,14.04
2019-05-22T21:37:12.634Z,13.93
2019-05-22T21:41:22.056Z,13.84
2019-05-22T21:45:28.971Z,13.80
2019-05-22T21:49:38.785Z,13.73
2019-05-22T21:53:45.261Z,13.65
2019-05-22T21:57:52.392Z,13.63
2019-05-22T22:02:09.395Z,13.52
2019-05-22T22:06:16.665Z,13.48
2019-05-22T22:10:23.715Z,13.42
2019-05-22T22:14:30.800Z,13.32
2019-05-22T22:18:39.967Z,13.35
2019-05-22T22:22:49.178Z,13.36
2019-05-22T22:26:56.851Z,13.30
2019-05-22T22:31:07.401Z,13.27
2019-05-22T22:35:16.514Z,13.23
2019-05-22T22:39:25.974Z,13.17
2019-05-22T22:43:36.990Z,13.09
2019-05-22T22:47:46.108Z,13.08
2019-05-22T22:51:53.230Z,13.06
2019-05-22T22:56:00.813Z,13.02
2019-05-22T23:00:13.335Z,12.98
2019-05-22T23:04:23.974Z,12.91
2019-05-22T23:08:33.748Z,12.89
2019-05-22T23:12:43.014Z,12.79
2019-05-22T23:16:51.053Z,12.75
2019-05-22T23:20:55.495Z,12.54
2019-05-22T23:25:04.199Z,12.44
2019-05-22T23:29:12.978Z,12.51
2019-05-22T23:33:19.823Z,12.36
2019-05-22T23:37:28.060Z,12.31
2019-05-22T23:41:37.063Z,12.22
2019-05-22T23:45:43.879Z,12.21
2019-05-22T23:49:51.460Z,12.12
2019-05-22T23:54:00.447Z,12.06
2019-05-22T23:58:08.808Z,11.97
